메인 페이지
METAR-TAF:

METAR-TAF

공항 :

게인즈빌, 플로리다, 미국

위도: 29-41-31N, 경도: 082-16-32W, 고도: 46m

현재 날씨관측

예보는 22분 전, 17:53시(UTC)에 발표되었습니다.
무풍
온도 27°C
습도 26%
기압 1015 hPa
시정: 16.1km
맑음

METAR: KGNV 041753Z 00000KT 10SM CLR 27/06 A2996 RMK AO2 SLP143 T02720061 10272 20106 58019

시각: 14:15 (18:15 UTC)

예보

예보는 55분 전, 17:20시(UTC)에 발표되었습니다.
예보 대상 시간: 04일 18시부터 05일 18시까지 (UTC)
서남서4kt
시정: 10km
고도 5000ft 상공 구름 조금
고도 12000ft 상공 구름 보통
고도 25000ft 상공 구름 많음
05일 0200시부터 (UTC)
여러 방향의 바람 3kt
시정: 10km
고도 10000ft 상공 구름 보통
고도 25000ft 상공 구름 많음
05일 1000시부터 (UTC)
여러 방향의 바람 2kt
시정: 10km
고도 5000ft 상공 구름 많음
고도 10000ft 상공 흐림
05일 1200시부터 (UTC)
동북동5kt
시정: 10km
고도 5000ft 상공 구름 많음
고도 10000ft 상공 흐림
시계 내 소나기
확률 30%
05일 12시부터 05일 18시까지 (UTC)
시정: 10km
고도 5000ft 상공 흐림
약한비

TAF: KGNV 041720Z 0418/0518 25004KT P6SM FEW050 SCT120 BKN250 FM050200 VRB03KT P6SM SCT100 BKN250 FM051000 VRB02KT P6SM BKN050 OVC100 FM051200 06005KT P6SM VCSH BKN050 OVC100 PROB30 0512/0518 P6SM -RA OVC050

4,000개 이상의 공항 관측 자료 및 예보 (METAR 및 TAF 보고).

지도상에서 검색 가능한 기상관측소가 노란 점과 빨간 점으로 표시되어 있습니다.

기상관측소 명을 보려면 표시 위로 마우스를 이동하세요.

날씨 관측과 예보를 보려면 클릭하세요.

지도 변경 : 확대하려면 엑스 표시가 있는 녹색 버튼, 축소하려면 빼기 표시가 있는 녹색 버튼, 다음 페이지의 지도를 보려면 녹색 화살표를 클릭하세요.


METAR-TAF: